Contact Info

Augusta Flying Club, Inc

KDNL 191453Z AUTO 30008G15KT 10SM CLR 21/06 A2990 RMK AO2 SLP119 T02060056 51008


TAF AMD KDNL 191501Z 1915/2012 30012G20KT P6SM FEW060 FM192200 31008KT P6SM SKC FM200000 VRB04KT P6SM SCT200

info@augustaflyingclub.com

Send us a message